Terminal Aerodrome Forecast
Issued by NWS Wakefield, VA

Home | Current Version | Previous Version | Text Only | Print | Product List | Glossary On
Versions: 1 2 3 4 5 6 7 8 9 10 11 12 13 14 15 16 17 18
000
FTUS41 KAKQ 301400 AAA
TAFRIC
TAF AMD
KRIC 301420Z 3014/0112 VRB03KT P6SM OVC015
     FM301530 19005KT P6SM SCT025 BKN040
     FM302300 09004KT P6SM SKC=

USA.gov is the U.S. government's official web portal to all federal, state and local government web resources and services.